sensor_id;sensor_type;location;lat;lon;timestamp;pressure;altitude;pressure_sealevel;temperature;humidity
40384;BME280;26097;42.366;23.818;2022-08-11T00:01:08;94290.78;;;14.27;100.00
40384;BME280;26097;42.366;23.818;2022-08-11T00:04:11;94285.25;;;14.30;100.00
40384;BME280;26097;42.366;23.818;2022-08-11T00:07:12;94295.19;;;14.26;100.00
40384;BME280;26097;42.366;23.818;2022-08-11T00:10:17;94282.22;;;14.25;100.00
40384;BME280;26097;42.366;23.818;2022-08-11T00:13:18;94281.13;;;14.27;100.00
40384;BME280;26097;42.366;23.818;2022-08-11T00:16:22;94276.69;;;14.28;100.00
40384;BME280;26097;42.366;23.818;2022-08-11T00:19:27;94281.66;;;14.31;100.00
40384;BME280;26097;42.366;23.818;2022-08-11T00:22:28;94278.09;;;14.42;100.00
40384;BME280;26097;42.366;23.818;2022-08-11T00:25:30;94274.94;;;14.48;100.00
40384;BME280;26097;42.366;23.818;2022-08-11T00:28:36;94272.72;;;14.43;100.00
40384;BME280;26097;42.366;23.818;2022-08-11T00:31:43;94277.69;;;14.47;100.00
40384;BME280;26097;42.366;23.818;2022-08-11T00:34:45;94270.38;;;14.40;100.00
40384;BME280;26097;42.366;23.818;2022-08-11T00:37:48;94266.09;;;14.39;100.00
40384;BME280;26097;42.366;23.818;2022-08-11T01:24:46;94262.16;;;14.75;100.00
40384;BME280;26097;42.366;23.818;2022-08-11T01:45:14;94247.34;;;15.03;100.00
40384;BME280;26097;42.366;23.818;2022-08-11T01:51:34;94252.19;;;15.08;100.00
40384;BME280;26097;42.366;23.818;2022-08-11T01:54:45;94241.66;;;15.27;100.00
40384;BME280;26097;42.366;23.818;2022-08-11T01:58:20;94244.16;;;15.29;100.00
40384;BME280;26097;42.366;23.818;2022-08-11T02:01:40;94243.16;;;15.30;100.00
40384;BME280;26097;42.366;23.818;2022-08-11T02:04:56;94237.75;;;15.32;100.00
40384;BME280;26097;42.366;23.818;2022-08-11T02:14:40;94241.78;;;15.36;100.00
40384;BME280;26097;42.366;23.818;2022-08-11T02:17:56;94246.06;;;15.37;100.00
40384;BME280;26097;42.366;23.818;2022-08-11T02:21:02;94237.50;;;15.35;100.00
40384;BME280;26097;42.366;23.818;2022-08-11T02:24:28;94237.75;;;15.32;100.00
40384;BME280;26097;42.366;23.818;2022-08-11T02:27:40;94243.31;;;15.28;100.00
40384;BME280;26097;42.366;23.818;2022-08-11T02:51:35;94247.19;;;15.14;100.00
40384;BME280;26097;42.366;23.818;2022-08-11T02:54:56;94248.59;;;15.09;100.00
40384;BME280;26097;42.366;23.818;2022-08-11T02:58:21;94243.63;;;15.06;100.00
40384;BME280;26097;42.366;23.818;2022-08-11T03:01:58;94248.31;;;15.12;100.00
40384;BME280;26097;42.366;23.818;2022-08-11T03:08:30;94239.03;;;15.18;100.00
40384;BME280;26097;42.366;23.818;2022-08-11T03:11:48;94239.19;;;15.26;100.00
40384;BME280;26097;42.366;23.818;2022-08-11T03:15:15;94240.28;;;15.23;100.00
40384;BME280;26097;42.366;23.818;2022-08-11T03:18:41;94236.00;;;15.22;100.00
40384;BME280;26097;42.366;23.818;2022-08-11T03:21:58;94244.19;;;15.09;100.00
40384;BME280;26097;42.366;23.818;2022-08-11T03:28:31;94246.94;;;14.88;100.00
40384;BME280;26097;42.366;23.818;2022-08-11T03:31:45;94247.91;;;14.77;100.00
40384;BME280;26097;42.366;23.818;2022-08-11T03:34:49;94243.34;;;14.69;100.00
40384;BME280;26097;42.366;23.818;2022-08-11T03:37:59;94245.53;;;14.64;100.00
40384;BME280;26097;42.366;23.818;2022-08-11T03:51:24;94243.59;;;14.56;100.00
40384;BME280;26097;42.366;23.818;2022-08-11T03:54:42;94247.06;;;14.67;100.00
40384;BME280;26097;42.366;23.818;2022-08-11T04:04:42;94248.28;;;15.22;100.00
40384;BME280;26097;42.366;23.818;2022-08-11T04:11:39;94250.84;;;15.51;100.00
40384;BME280;26097;42.366;23.818;2022-08-11T04:22:21;94243.66;;;15.53;100.00
40384;BME280;26097;42.366;23.818;2022-08-11T04:25:34;94248.84;;;15.73;100.00
40384;BME280;26097;42.366;23.818;2022-08-11T04:28:53;94244.00;;;15.78;100.00
40384;BME280;26097;42.366;23.818;2022-08-11T04:39:38;94248.84;;;16.11;100.00
40384;BME280;26097;42.366;23.818;2022-08-11T04:50:06;94254.72;;;16.23;100.00
40384;BME280;26097;42.366;23.818;2022-08-11T04:53:44;94250.03;;;16.45;100.00
40384;BME280;26097;42.366;23.818;2022-08-11T04:57:18;94255.97;;;16.47;100.00
40384;BME280;26097;42.366;23.818;2022-08-11T05:17:44;94258.31;;;16.86;100.00
40384;BME280;26097;42.366;23.818;2022-08-11T05:21:09;94251.88;;;16.98;100.00
40384;BME280;26097;42.366;23.818;2022-08-11T05:24:40;94252.91;;;17.06;100.00
40384;BME280;26097;42.366;23.818;2022-08-11T05:28:13;94249.06;;;17.18;100.00
40384;BME280;26097;42.366;23.818;2022-08-11T05:31:36;94251.41;;;17.48;100.00
40384;BME280;26097;42.366;23.818;2022-08-11T05:34:56;94251.66;;;17.63;100.00
40384;BME280;26097;42.366;23.818;2022-08-11T05:38:01;94250.34;;;17.67;100.00
40384;BME280;26097;42.366;23.818;2022-08-11T05:41:22;94245.84;;;17.85;100.00
40384;BME280;26097;42.366;23.818;2022-08-11T05:44:44;94241.53;;;17.84;100.00
40384;BME280;26097;42.366;23.818;2022-08-11T05:48:05;94243.41;;;17.92;100.00
40384;BME280;26097;42.366;23.818;2022-08-11T05:51:33;94245.25;;;18.00;100.00
40384;BME280;26097;42.366;23.818;2022-08-11T05:54:52;94240.06;;;18.17;100.00
40384;BME280;26097;42.366;23.818;2022-08-11T05:58:12;94234.34;;;18.30;100.00
40384;BME280;26097;42.366;23.818;2022-08-11T06:01:24;94240.47;;;18.47;100.00
40384;BME280;26097;42.366;23.818;2022-08-11T06:04:25;94243.50;;;18.68;100.00
40384;BME280;26097;42.366;23.818;2022-08-11T06:07:29;94245.81;;;18.72;100.00
40384;BME280;26097;42.366;23.818;2022-08-11T06:10:36;94240.22;;;18.75;100.00
40384;BME280;26097;42.366;23.818;2022-08-11T06:13:43;94252.13;;;18.87;100.00
40384;BME280;26097;42.366;23.818;2022-08-11T06:16:47;94248.16;;;18.91;100.00
40384;BME280;26097;42.366;23.818;2022-08-11T06:19:49;94247.03;;;19.10;100.00
40384;BME280;26097;42.366;23.818;2022-08-11T06:22:58;94257.09;;;19.23;100.00
40384;BME280;26097;42.366;23.818;2022-08-11T06:26:07;94255.44;;;19.06;96.71
40384;BME280;26097;42.366;23.818;2022-08-11T06:29:09;94246.03;;;19.20;99.32
40384;BME280;26097;42.366;23.818;2022-08-11T06:32:11;94253.63;;;19.31;98.28
40384;BME280;26097;42.366;23.818;2022-08-11T06:42:06;94245.53;;;19.49;100.00
40384;BME280;26097;42.366;23.818;2022-08-11T06:45:35;94241.34;;;19.63;96.94
40384;BME280;26097;42.366;23.818;2022-08-11T06:48:40;94237.22;;;19.69;98.91
40384;BME280;26097;42.366;23.818;2022-08-11T06:51:46;94229.28;;;19.69;98.48
40384;BME280;26097;42.366;23.818;2022-08-11T06:54:50;94233.88;;;19.92;95.77
40384;BME280;26097;42.366;23.818;2022-08-11T06:57:56;94233.03;;;20.00;93.89
40384;BME280;26097;42.366;23.818;2022-08-11T07:01:22;94225.34;;;20.13;95.89
40384;BME280;26097;42.366;23.818;2022-08-11T07:15:11;94238.06;;;20.49;88.73
40384;BME280;26097;42.366;23.818;2022-08-11T07:18:33;94242.63;;;20.64;89.12
40384;BME280;26097;42.366;23.818;2022-08-11T07:21:56;94235.16;;;20.67;90.74
40384;BME280;26097;42.366;23.818;2022-08-11T07:25:17;94243.69;;;20.78;89.01
40384;BME280;26097;42.366;23.818;2022-08-11T07:28:41;94242.88;;;21.01;87.02
40384;BME280;26097;42.366;23.818;2022-08-11T07:31:59;94240.84;;;21.11;88.22
40384;BME280;26097;42.366;23.818;2022-08-11T07:35:11;94233.13;;;21.24;81.95
40384;BME280;26097;42.366;23.818;2022-08-11T07:38:21;94229.75;;;21.46;81.66
40384;BME280;26097;42.366;23.818;2022-08-11T07:41:24;94227.66;;;21.41;82.14
40384;BME280;26097;42.366;23.818;2022-08-11T07:44:26;94223.09;;;21.50;76.25
40384;BME280;26097;42.366;23.818;2022-08-11T07:47:30;94222.41;;;21.71;79.66
40384;BME280;26097;42.366;23.818;2022-08-11T07:50:50;94224.69;;;21.89;80.21
40384;BME280;26097;42.366;23.818;2022-08-11T07:54:09;94233.94;;;21.78;71.54
40384;BME280;26097;42.366;23.818;2022-08-11T07:57:11;94227.81;;;21.78;69.85
40384;BME280;26097;42.366;23.818;2022-08-11T08:00:36;94219.50;;;21.81;71.69
40384;BME280;26097;42.366;23.818;2022-08-11T08:03:58;94223.25;;;21.87;70.62
40384;BME280;26097;42.366;23.818;2022-08-11T08:07:20;94224.78;;;21.96;69.41
40384;BME280;26097;42.366;23.818;2022-08-11T08:10:39;94228.63;;;22.08;68.55
40384;BME280;26097;42.366;23.818;2022-08-11T08:13:59;94233.75;;;22.25;69.08
40384;BME280;26097;42.366;23.818;2022-08-11T08:17:20;94228.88;;;22.44;70.30
40384;BME280;26097;42.366;23.818;2022-08-11T08:20:47;94225.56;;;22.57;67.33
40384;BME280;26097;42.366;23.818;2022-08-11T08:23:49;94228.97;;;22.50;68.19
40384;BME280;26097;42.366;23.818;2022-08-11T08:26:50;94208.91;;;22.48;70.01
40384;BME280;26097;42.366;23.818;2022-08-11T08:30:01;94212.66;;;22.53;65.35
40384;BME280;26097;42.366;23.818;2022-08-11T08:33:26;94213.06;;;22.72;67.76
40384;BME280;26097;42.366;23.818;2022-08-11T08:36:27;94209.50;;;22.87;66.43
40384;BME280;26097;42.366;23.818;2022-08-11T08:39:28;94211.81;;;22.90;66.98
40384;BME280;26097;42.366;23.818;2022-08-11T08:42:38;94208.31;;;22.89;65.71
40384;BME280;26097;42.366;23.818;2022-08-11T08:45:39;94217.78;;;22.99;64.06
40384;BME280;26097;42.366;23.818;2022-08-11T08:48:41;94214.25;;;23.13;66.06
40384;BME280;26097;42.366;23.818;2022-08-11T08:51:44;94203.84;;;23.18;65.05
40384;BME280;26097;42.366;23.818;2022-08-11T08:54:52;94213.84;;;23.38;65.97
40384;BME280;26097;42.366;23.818;2022-08-11T08:57:54;94199.19;;;23.20;65.18
40384;BME280;26097;42.366;23.818;2022-08-11T09:01:00;94200.88;;;23.50;63.94
40384;BME280;26097;42.366;23.818;2022-08-11T09:04:02;94203.47;;;23.43;63.24
40384;BME280;26097;42.366;23.818;2022-08-11T09:07:16;94192.06;;;23.49;63.14
40384;BME280;26097;42.366;23.818;2022-08-11T09:10:19;94201.38;;;23.67;62.73
40384;BME280;26097;42.366;23.818;2022-08-11T09:13:20;94205.59;;;23.54;59.39
40384;BME280;26097;42.366;23.818;2022-08-11T09:16:21;94195.63;;;23.35;61.89
40384;BME280;26097;42.366;23.818;2022-08-11T09:19:22;94193.16;;;23.62;62.52
40384;BME280;26097;42.366;23.818;2022-08-11T09:22:26;94183.59;;;23.74;62.35
40384;BME280;26097;42.366;23.818;2022-08-11T09:25:46;94190.56;;;23.68;59.27
40384;BME280;26097;42.366;23.818;2022-08-11T09:29:07;94184.94;;;23.92;57.46
40384;BME280;26097;42.366;23.818;2022-08-11T09:32:10;94183.19;;;24.06;54.83
40384;BME280;26097;42.366;23.818;2022-08-11T09:35:11;94186.69;;;24.06;55.90
40384;BME280;26097;42.366;23.818;2022-08-11T09:38:14;94171.19;;;24.30;57.94
40384;BME280;26097;42.366;23.818;2022-08-11T09:41:35;94163.28;;;24.57;57.65
40384;BME280;26097;42.366;23.818;2022-08-11T09:44:36;94164.94;;;24.72;55.89
40384;BME280;26097;42.366;23.818;2022-08-11T09:47:49;94166.53;;;24.46;56.35
40384;BME280;26097;42.366;23.818;2022-08-11T09:50:55;94155.44;;;24.35;55.58
40384;BME280;26097;42.366;23.818;2022-08-11T09:53:58;94160.06;;;24.75;56.10
40384;BME280;26097;42.366;23.818;2022-08-11T09:57:00;94145.94;;;24.88;56.55
40384;BME280;26097;42.366;23.818;2022-08-11T10:00:19;94143.47;;;24.93;55.40
40384;BME280;26097;42.366;23.818;2022-08-11T10:03:26;94141.00;;;25.05;53.96
40384;BME280;26097;42.366;23.818;2022-08-11T10:06:28;94143.28;;;25.08;54.00
40384;BME280;26097;42.366;23.818;2022-08-11T10:09:51;94152.88;;;25.43;50.71
40384;BME280;26097;42.366;23.818;2022-08-11T10:13:01;94142.81;;;25.45;48.42
40384;BME280;26097;42.366;23.818;2022-08-11T10:16:05;94136.28;;;25.41;50.88
40384;BME280;26097;42.366;23.818;2022-08-11T10:19:08;94138.44;;;25.85;52.47
40384;BME280;26097;42.366;23.818;2022-08-11T10:22:09;94146.94;;;25.34;51.66
40384;BME280;26097;42.366;23.818;2022-08-11T10:25:28;94149.22;;;25.10;50.60
40384;BME280;26097;42.366;23.818;2022-08-11T10:28:48;94131.75;;;25.42;50.80
40384;BME280;26097;42.366;23.818;2022-08-11T10:31:49;94120.03;;;25.63;48.76
40384;BME280;26097;42.366;23.818;2022-08-11T10:35:09;94129.69;;;25.64;49.69
40384;BME280;26097;42.366;23.818;2022-08-11T10:38:13;94119.97;;;25.83;48.50
40384;BME280;26097;42.366;23.818;2022-08-11T10:41:15;94125.66;;;26.00;48.86
40384;BME280;26097;42.366;23.818;2022-08-11T10:44:39;94112.91;;;26.09;50.00
40384;BME280;26097;42.366;23.818;2022-08-11T10:47:43;94107.03;;;25.87;47.66
40384;BME280;26097;42.366;23.818;2022-08-11T10:50:48;94107.94;;;26.13;48.71
40384;BME280;26097;42.366;23.818;2022-08-11T10:54:07;94104.09;;;26.47;49.36
40384;BME280;26097;42.366;23.818;2022-08-11T10:57:27;94100.31;;;26.23;48.62
40384;BME280;26097;42.366;23.818;2022-08-11T11:00:48;94107.47;;;26.29;47.57
40384;BME280;26097;42.366;23.818;2022-08-11T11:03:59;94101.19;;;26.49;46.11
40384;BME280;26097;42.366;23.818;2022-08-11T11:07:16;94096.44;;;26.83;45.95
40384;BME280;26097;42.366;23.818;2022-08-11T11:10:19;94091.47;;;26.93;44.95
40384;BME280;26097;42.366;23.818;2022-08-11T11:13:21;94086.16;;;26.87;45.36
40384;BME280;26097;42.366;23.818;2022-08-11T11:16:41;94087.31;;;26.98;45.70
40384;BME280;26097;42.366;23.818;2022-08-11T11:20:02;94089.97;;;26.65;47.02
40384;BME280;26097;42.366;23.818;2022-08-11T11:23:25;94088.09;;;26.98;45.42
40384;BME280;26097;42.366;23.818;2022-08-11T11:26:34;94079.81;;;27.06;44.57
40384;BME280;26097;42.366;23.818;2022-08-11T11:29:55;94074.59;;;27.37;45.09
40384;BME280;26097;42.366;23.818;2022-08-11T11:33:35;94071.25;;;27.23;43.72
40384;BME280;26097;42.366;23.818;2022-08-11T11:39:46;94069.63;;;26.97;45.40
40384;BME280;26097;42.366;23.818;2022-08-11T11:42:52;94070.44;;;27.41;44.40
40384;BME280;26097;42.366;23.818;2022-08-11T11:45:53;94057.00;;;27.67;43.43
40384;BME280;26097;42.366;23.818;2022-08-11T11:48:55;94059.94;;;27.96;43.78
40384;BME280;26097;42.366;23.818;2022-08-11T11:51:56;94059.44;;;27.68;42.35
40384;BME280;26097;42.366;23.818;2022-08-11T11:54:58;94053.25;;;28.05;42.87
40384;BME280;26097;42.366;23.818;2022-08-11T11:58:00;94050.22;;;27.64;40.43
40384;BME280;26097;42.366;23.818;2022-08-11T12:01:21;94059.13;;;27.95;42.25
40384;BME280;26097;42.366;23.818;2022-08-11T12:04:24;94046.22;;;27.73;41.65
40384;BME280;26097;42.366;23.818;2022-08-11T12:07:26;94056.50;;;26.88;42.31
40384;BME280;26097;42.366;23.818;2022-08-11T12:10:47;94037.28;;;27.61;41.72
40384;BME280;26097;42.366;23.818;2022-08-11T12:13:50;94047.00;;;27.92;41.70
40384;BME280;26097;42.366;23.818;2022-08-11T12:16:51;94046.75;;;28.13;42.41
40384;BME280;26097;42.366;23.818;2022-08-11T12:19:54;94038.41;;;27.72;42.05
40384;BME280;26097;42.366;23.818;2022-08-11T12:22:55;94052.09;;;27.63;42.28
40384;BME280;26097;42.366;23.818;2022-08-11T12:26:23;94049.34;;;27.51;42.54
40384;BME280;26097;42.366;23.818;2022-08-11T12:30:00;94049.41;;;27.82;43.64
40384;BME280;26097;42.366;23.818;2022-08-11T12:33:06;94041.91;;;28.21;43.10
40384;BME280;26097;42.366;23.818;2022-08-11T12:36:08;94042.09;;;26.89;43.02
40384;BME280;26097;42.366;23.818;2022-08-11T12:39:19;94048.13;;;26.14;44.44
40384;BME280;26097;42.366;23.818;2022-08-11T12:42:43;94044.97;;;26.30;44.89
40384;BME280;26097;42.366;23.818;2022-08-11T12:46:05;94038.94;;;26.99;43.48
40384;BME280;26097;42.366;23.818;2022-08-11T12:49:18;94045.16;;;26.93;43.66
40384;BME280;26097;42.366;23.818;2022-08-11T12:52:44;94038.16;;;27.17;42.29
40384;BME280;26097;42.366;23.818;2022-08-11T12:55:50;94039.66;;;27.69;42.49
40384;BME280;26097;42.366;23.818;2022-08-11T12:59:31;94033.78;;;28.09;41.59
40384;BME280;26097;42.366;23.818;2022-08-11T13:02:51;94042.31;;;27.50;41.93
40384;BME280;26097;42.366;23.818;2022-08-11T13:06:10;94038.28;;;27.04;42.88
40384;BME280;26097;42.366;23.818;2022-08-11T13:09:11;94037.94;;;26.43;44.09
40384;BME280;26097;42.366;23.818;2022-08-11T13:12:12;94049.16;;;26.13;45.12
40384;BME280;26097;42.366;23.818;2022-08-11T13:15:32;94040.84;;;25.95;44.97
40384;BME280;26097;42.366;23.818;2022-08-11T13:18:33;94036.28;;;25.64;44.69
40384;BME280;26097;42.366;23.818;2022-08-11T13:21:34;94045.94;;;26.04;45.11
40384;BME280;26097;42.366;23.818;2022-08-11T13:24:35;94042.53;;;26.29;44.74
40384;BME280;26097;42.366;23.818;2022-08-11T13:27:35;94035.56;;;26.85;44.48
40384;BME280;26097;42.366;23.818;2022-08-11T13:30:36;94024.97;;;27.60;43.79
40384;BME280;26097;42.366;23.818;2022-08-11T13:33:56;94026.44;;;28.05;41.79
40384;BME280;26097;42.366;23.818;2022-08-11T13:36:58;94036.91;;;28.25;40.39
40384;BME280;26097;42.366;23.818;2022-08-11T13:40:00;94033.91;;;28.03;41.51
40384;BME280;26097;42.366;23.818;2022-08-11T13:43:01;94025.97;;;27.77;41.98
40384;BME280;26097;42.366;23.818;2022-08-11T13:46:02;94022.38;;;27.28;44.63
40384;BME280;26097;42.366;23.818;2022-08-11T13:49:23;94015.41;;;27.45;42.76
40384;BME280;26097;42.366;23.818;2022-08-11T13:52:24;94026.25;;;26.62;43.72
40384;BME280;26097;42.366;23.818;2022-08-11T13:55:26;94034.50;;;25.90;43.89
40384;BME280;26097;42.366;23.818;2022-08-11T13:58:27;94034.13;;;25.86;44.84
40384;BME280;26097;42.366;23.818;2022-08-11T14:01:48;94032.94;;;25.75;45.33
40384;BME280;26097;42.366;23.818;2022-08-11T14:04:57;94024.00;;;25.49;45.56
40384;BME280;26097;42.366;23.818;2022-08-11T14:08:04;94031.63;;;25.32;45.83
40384;BME280;26097;42.366;23.818;2022-08-11T14:11:07;94028.38;;;25.23;46.14
40384;BME280;26097;42.366;23.818;2022-08-11T14:14:31;94028.53;;;25.35;46.18
40384;BME280;26097;42.366;23.818;2022-08-11T14:17:33;94031.84;;;25.90;44.74
40384;BME280;26097;42.366;23.818;2022-08-11T14:20:37;94023.19;;;26.59;44.09
40384;BME280;26097;42.366;23.818;2022-08-11T14:23:58;94021.66;;;27.20;41.17
40384;BME280;26097;42.366;23.818;2022-08-11T14:27:00;94024.28;;;26.51;44.98
40384;BME280;26097;42.366;23.818;2022-08-11T14:30:01;94038.03;;;26.22;45.78
40384;BME280;26097;42.366;23.818;2022-08-11T14:33:03;94037.50;;;25.61;45.78
40384;BME280;26097;42.366;23.818;2022-08-11T14:36:05;94039.41;;;25.47;46.88
40384;BME280;26097;42.366;23.818;2022-08-11T14:39:09;94037.94;;;25.51;47.45
40384;BME280;26097;42.366;23.818;2022-08-11T14:42:13;94050.94;;;26.32;46.21
40384;BME280;26097;42.366;23.818;2022-08-11T14:45:33;94046.28;;;27.48;43.46
40384;BME280;26097;42.366;23.818;2022-08-11T14:48:52;94039.00;;;27.55;42.73
40384;BME280;26097;42.366;23.818;2022-08-11T14:51:54;94038.44;;;28.33;44.23
40384;BME280;26097;42.366;23.818;2022-08-11T14:54:56;94041.19;;;28.69;43.91
40384;BME280;26097;42.366;23.818;2022-08-11T14:58:18;94050.06;;;27.96;42.79
40384;BME280;26097;42.366;23.818;2022-08-11T15:01:19;94047.66;;;27.13;46.29
40384;BME280;26097;42.366;23.818;2022-08-11T15:04:38;94053.59;;;26.32;50.65
40384;BME280;26097;42.366;23.818;2022-08-11T15:07:39;94054.31;;;25.75;52.81
40384;BME280;26097;42.366;23.818;2022-08-11T15:10:41;94062.22;;;25.23;55.39
40384;BME280;26097;42.366;23.818;2022-08-11T15:13:41;94076.22;;;24.78;56.92
40384;BME280;26097;42.366;23.818;2022-08-11T15:16:43;94073.31;;;24.52;57.37
40384;BME280;26097;42.366;23.818;2022-08-11T15:20:07;94072.84;;;24.35;59.56
40384;BME280;26097;42.366;23.818;2022-08-11T15:23:28;94078.59;;;24.19;60.74
40384;BME280;26097;42.366;23.818;2022-08-11T15:26:48;94078.19;;;24.42;58.84
40384;BME280;26097;42.366;23.818;2022-08-11T15:30:08;94075.28;;;24.23;60.75
40384;BME280;26097;42.366;23.818;2022-08-11T15:33:29;94071.16;;;24.07;62.52
40384;BME280;26097;42.366;23.818;2022-08-11T15:36:54;94070.28;;;23.93;63.09
40384;BME280;26097;42.366;23.818;2022-08-11T15:40:18;94071.84;;;23.74;63.81
40384;BME280;26097;42.366;23.818;2022-08-11T15:43:43;94069.78;;;24.25;59.09
40384;BME280;26097;42.366;23.818;2022-08-11T15:47:04;94065.09;;;24.61;59.41
40384;BME280;26097;42.366;23.818;2022-08-11T15:50:12;94062.13;;;24.02;61.74
40384;BME280;26097;42.366;23.818;2022-08-11T15:53:26;94067.31;;;23.68;63.83
40384;BME280;26097;42.366;23.818;2022-08-11T15:56:30;94079.28;;;23.44;62.90
40384;BME280;26097;42.366;23.818;2022-08-11T15:59:34;94072.38;;;23.21;63.84
40384;BME280;26097;42.366;23.818;2022-08-11T16:02:56;94078.72;;;22.91;66.75
40384;BME280;26097;42.366;23.818;2022-08-11T16:06:16;94079.38;;;22.72;68.53
40384;BME280;26097;42.366;23.818;2022-08-11T16:09:24;94082.06;;;22.50;67.64
40384;BME280;26097;42.366;23.818;2022-08-11T16:12:45;94089.25;;;22.34;67.72
40384;BME280;26097;42.366;23.818;2022-08-11T16:16:03;94090.50;;;22.17;69.96
40384;BME280;26097;42.366;23.818;2022-08-11T16:19:14;94083.84;;;22.06;68.26
40384;BME280;26097;42.366;23.818;2022-08-11T16:22:21;94087.13;;;22.08;68.07
40384;BME280;26097;42.366;23.818;2022-08-11T16:25:32;94089.75;;;22.01;68.90
40384;BME280;26097;42.366;23.818;2022-08-11T16:28:33;94091.41;;;21.87;70.65
40384;BME280;26097;42.366;23.818;2022-08-11T16:31:35;94089.03;;;21.77;72.81
40384;BME280;26097;42.366;23.818;2022-08-11T16:34:38;94089.78;;;21.71;73.91
40384;BME280;26097;42.366;23.818;2022-08-11T16:37:58;94091.97;;;21.52;76.75
40384;BME280;26097;42.366;23.818;2022-08-11T16:41:37;94096.53;;;21.44;79.20
40384;BME280;26097;42.366;23.818;2022-08-11T16:44:58;94105.34;;;21.44;77.11
40384;BME280;26097;42.366;23.818;2022-08-11T16:48:18;94092.72;;;21.46;74.56
40384;BME280;26097;42.366;23.818;2022-08-11T16:51:21;94092.09;;;21.44;71.76
40384;BME280;26097;42.366;23.818;2022-08-11T16:54:21;94096.47;;;21.22;75.40
40384;BME280;26097;42.366;23.818;2022-08-11T16:57:26;94103.41;;;21.08;76.39
40384;BME280;26097;42.366;23.818;2022-08-11T17:00:47;94103.56;;;21.06;73.72
40384;BME280;26097;42.366;23.818;2022-08-11T17:04:20;94115.72;;;21.01;74.91
40384;BME280;26097;42.366;23.818;2022-08-11T17:07:43;94113.38;;;20.59;79.21
40384;BME280;26097;42.366;23.818;2022-08-11T17:11:03;94115.91;;;20.52;79.82
40384;BME280;26097;42.366;23.818;2022-08-11T17:14:39;94118.72;;;20.36;82.89
40384;BME280;26097;42.366;23.818;2022-08-11T17:17:41;94119.28;;;20.23;84.66
40384;BME280;26097;42.366;23.818;2022-08-11T17:20:42;94120.97;;;20.16;85.15
40384;BME280;26097;42.366;23.818;2022-08-11T17:23:47;94122.84;;;20.07;88.20
40384;BME280;26097;42.366;23.818;2022-08-11T17:26:51;94128.19;;;19.90;87.15
40384;BME280;26097;42.366;23.818;2022-08-11T17:30:02;94130.38;;;19.87;83.02
40384;BME280;26097;42.366;23.818;2022-08-11T17:33:03;94134.84;;;19.86;81.28
40384;BME280;26097;42.366;23.818;2022-08-11T17:36:23;94129.75;;;19.76;83.05
40384;BME280;26097;42.366;23.818;2022-08-11T17:39:26;94132.44;;;19.68;83.54
40384;BME280;26097;42.366;23.818;2022-08-11T17:42:30;94134.25;;;19.67;83.67
40384;BME280;26097;42.366;23.818;2022-08-11T17:45:50;94141.69;;;19.64;83.46
40384;BME280;26097;42.366;23.818;2022-08-11T17:49:11;94142.88;;;19.53;85.87
40384;BME280;26097;42.366;23.818;2022-08-11T17:52:12;94142.44;;;19.41;87.80
40384;BME280;26097;42.366;23.818;2022-08-11T17:55:34;94144.47;;;19.31;88.84
40384;BME280;26097;42.366;23.818;2022-08-11T17:58:55;94147.75;;;19.24;90.36
40384;BME280;26097;42.366;23.818;2022-08-11T18:02:17;94159.50;;;19.22;90.41
40384;BME280;26097;42.366;23.818;2022-08-11T18:05:38;94166.28;;;19.16;91.44
40384;BME280;26097;42.366;23.818;2022-08-11T18:08:45;94172.72;;;19.13;92.06
40384;BME280;26097;42.366;23.818;2022-08-11T18:12:06;94184.47;;;19.11;92.15
40384;BME280;26097;42.366;23.818;2022-08-11T18:15:25;94190.72;;;19.02;94.21
40384;BME280;26097;42.366;23.818;2022-08-11T18:18:45;94200.78;;;18.98;95.34
40384;BME280;26097;42.366;23.818;2022-08-11T18:22:12;94207.88;;;18.97;95.64
40384;BME280;26097;42.366;23.818;2022-08-11T18:25:36;94217.47;;;18.98;95.04
40384;BME280;26097;42.366;23.818;2022-08-11T18:28:57;94218.91;;;18.93;96.81
40384;BME280;26097;42.366;23.818;2022-08-11T18:32:19;94216.00;;;19.04;92.95
40384;BME280;26097;42.366;23.818;2022-08-11T18:35:40;94218.78;;;19.03;93.27
40384;BME280;26097;42.366;23.818;2022-08-11T18:39:01;94227.38;;;19.05;93.84
40384;BME280;26097;42.366;23.818;2022-08-11T18:42:22;94234.00;;;19.09;92.90
40384;BME280;26097;42.366;23.818;2022-08-11T18:45:45;94247.53;;;19.14;90.64
40384;BME280;26097;42.366;23.818;2022-08-11T18:49:14;94233.97;;;19.17;89.16
40384;BME280;26097;42.366;23.818;2022-08-11T18:52:34;94236.13;;;19.13;90.16
40384;BME280;26097;42.366;23.818;2022-08-11T18:55:55;94241.25;;;19.07;92.23
40384;BME280;26097;42.366;23.818;2022-08-11T18:59:17;94246.53;;;18.98;94.38
40384;BME280;26097;42.366;23.818;2022-08-11T19:02:38;94259.41;;;19.02;94.11
40384;BME280;26097;42.366;23.818;2022-08-11T19:06:03;94261.38;;;19.00;94.98
40384;BME280;26097;42.366;23.818;2022-08-11T19:09:23;94257.75;;;19.01;95.45
40384;BME280;26097;42.366;23.818;2022-08-11T19:12:44;94269.59;;;18.96;96.15
40384;BME280;26097;42.366;23.818;2022-08-11T19:16:04;94257.88;;;18.91;96.01
40384;BME280;26097;42.366;23.818;2022-08-11T19:19:26;94266.28;;;18.86;95.80
40384;BME280;26097;42.366;23.818;2022-08-11T19:22:47;94259.03;;;18.80;96.81
40384;BME280;26097;42.366;23.818;2022-08-11T19:26:07;94256.72;;;18.77;96.88
40384;BME280;26097;42.366;23.818;2022-08-11T19:29:27;94246.63;;;18.72;98.70
40384;BME280;26097;42.366;23.818;2022-08-11T19:32:48;94249.09;;;18.65;99.53
40384;BME280;26097;42.366;23.818;2022-08-11T19:36:08;94250.88;;;18.56;100.00
40384;BME280;26097;42.366;23.818;2022-08-11T19:39:28;94254.38;;;18.49;100.00
40384;BME280;26097;42.366;23.818;2022-08-11T19:42:47;94257.00;;;18.49;100.00